Hartford, AL

8:43 PM CST on December 07, 2016 (GMT -0600)
APRSWXNET | | Change Station

Elev 150 ft 30.93 °N, 85.68 °W | Updated 30 minutes ago

Clear
Clear
49 °F
Feels Like 49 °F
N
0
Wind Variable Wind from NW
Gusts 0.0 mph

Today
High -- | Low -- °F
--% Chance of Precip.
Yesterday
High -- | Low -- °F
Precip. -- in
Pressure 30.15 in
Visibility 10.0 miles
Clouds Clear
Windchill 49 °F
Dew Point 49 °F
Humidity 100%
Rainfall in
Snow Depth Not available.
6:28 AM 4:40 PM
First Quarter, 58% visible
METAR KOZR 080156Z AUTO 35004KT 10SM CLR 10/08 A3014 RMK AO2 SLP209 T01020080
Pressure 30.15 in
Visibility 10.0 miles
Clouds Clear
Windchill 49 °F
Dew Point 49 °F
Humidity 100%
Rainfall in
Snow Depth Not available.
6:28 AM 4:40 PM
First Quarter, 58% visible
METAR KOZR 080156Z AUTO 35004KT 10SM CLR 10/08 A3014 RMK AO2 SLP209 T01020080

10-Day Weather Forecast

Almanac

Astronomy

Dec. 07, 2016 Rise Set
Actual Time
Civil Twilight
Nautical Twilight
Astronomical Twilight
Moon
Length of Visible Light
Length of Day
Tomorrow will be .
, % of the Moon is Illuminated

Today's Extremes

State Highs State Lows

Community

WunderPhotos

Upload Photos

1,956,259 photos uploaded!

WunderBlog® & News

Nearby

Air Quality

  Air Quality AQ Index Pollutant
Not available.

Snow Depth

Station Depth Elevation

Earthquake Activity

City Distance Mag. Time & Date
Minimum magnitude displayed is 2.5.

Coastal Water Temperatures

Place Temperature

Stations

Nearby Weather Stations

Station Location Temp. Windchill Dew Point Humidity Wind Precip. Elev Updated Type
                   

Watches & Warnings

There are currently no watches in effect.